sensor_id;sensor_type;location;lat;lon;timestamp;P1;durP1;ratioP1;P2;durP2;ratioP2
71975;SDS011;68326;52.124;5.424;2023-03-15T00:01:18;0.77;;;0.00;;
71975;SDS011;68326;52.124;5.424;2023-03-15T00:03:46;0.00;;;0.00;;
71975;SDS011;68326;52.124;5.424;2023-03-15T00:06:13;0.20;;;0.00;;
71975;SDS011;68326;52.124;5.424;2023-03-15T00:08:40;0.28;;;0.00;;
71975;SDS011;68326;52.124;5.424;2023-03-15T00:11:13;0.45;;;0.00;;
71975;SDS011;68326;52.124;5.424;2023-03-15T00:13:43;1.73;;;0.00;;
71975;SDS011;68326;52.124;5.424;2023-03-15T00:16:11;0.30;;;0.10;;
71975;SDS011;68326;52.124;5.424;2023-03-15T00:18:42;0.40;;;0.10;;
71975;SDS011;68326;52.124;5.424;2023-03-15T00:21:10;1.00;;;0.10;;
71975;SDS011;68326;52.124;5.424;2023-03-15T00:23:37;0.15;;;0.10;;
71975;SDS011;68326;52.124;5.424;2023-03-15T00:26:03;0.50;;;0.10;;
71975;SDS011;68326;52.124;5.424;2023-03-15T00:28:30;1.83;;;0.10;;
71975;SDS011;68326;52.124;5.424;2023-03-15T00:31:07;0.80;;;0.10;;
71975;SDS011;68326;52.124;5.424;2023-03-15T00:33:39;1.02;;;0.20;;
71975;SDS011;68326;52.124;5.424;2023-03-15T00:36:07;1.65;;;0.10;;
71975;SDS011;68326;52.124;5.424;2023-03-15T00:38:35;0.80;;;0.20;;
71975;SDS011;68326;52.124;5.424;2023-03-15T00:41:06;1.20;;;0.20;;
71975;SDS011;68326;52.124;5.424;2023-03-15T00:43:34;0.98;;;0.20;;
71975;SDS011;68326;52.124;5.424;2023-03-15T00:46:02;1.15;;;0.30;;
71975;SDS011;68326;52.124;5.424;2023-03-15T00:48:29;0.70;;;0.20;;
71975;SDS011;68326;52.124;5.424;2023-03-15T00:53:34;1.70;;;0.40;;
71975;SDS011;68326;52.124;5.424;2023-03-15T00:56:06;1.27;;;0.35;;
71975;SDS011;68326;52.124;5.424;2023-03-15T00:58:35;3.35;;;0.43;;
71975;SDS011;68326;52.124;5.424;2023-03-15T01:01:09;2.15;;;0.57;;
71975;SDS011;68326;52.124;5.424;2023-03-15T01:03:44;2.70;;;0.63;;
71975;SDS011;68326;52.124;5.424;2023-03-15T01:06:12;1.45;;;0.52;;
71975;SDS011;68326;52.124;5.424;2023-03-15T01:08:40;1.98;;;0.60;;
71975;SDS011;68326;52.124;5.424;2023-03-15T01:11:11;3.15;;;0.77;;
71975;SDS011;68326;52.124;5.424;2023-03-15T01:13:42;3.42;;;1.00;;
71975;SDS011;68326;52.124;5.424;2023-03-15T01:16:09;1.93;;;0.73;;
71975;SDS011;68326;52.124;5.424;2023-03-15T01:18:38;2.40;;;0.73;;
71975;SDS011;68326;52.124;5.424;2023-03-15T01:21:05;1.70;;;0.60;;
71975;SDS011;68326;52.124;5.424;2023-03-15T01:23:33;1.45;;;0.50;;
71975;SDS011;68326;52.124;5.424;2023-03-15T01:26:00;3.22;;;0.50;;
71975;SDS011;68326;52.124;5.424;2023-03-15T01:28:30;1.80;;;0.70;;
71975;SDS011;68326;52.124;5.424;2023-03-15T01:30:57;1.45;;;0.52;;
71975;SDS011;68326;52.124;5.424;2023-03-15T01:33:25;1.85;;;0.50;;
71975;SDS011;68326;52.124;5.424;2023-03-15T01:35:59;3.35;;;0.55;;
71975;SDS011;68326;52.124;5.424;2023-03-15T01:38:27;1.33;;;0.30;;
71975;SDS011;68326;52.124;5.424;2023-03-15T01:40:54;1.10;;;0.40;;
71975;SDS011;68326;52.124;5.424;2023-03-15T01:43:21;1.92;;;0.40;;
71975;SDS011;68326;52.124;5.424;2023-03-15T01:46:01;0.93;;;0.20;;
71975;SDS011;68326;52.124;5.424;2023-03-15T01:48:36;1.83;;;0.35;;
71975;SDS011;68326;52.124;5.424;2023-03-15T01:51:09;0.95;;;0.30;;
71975;SDS011;68326;52.124;5.424;2023-03-15T01:53:42;0.53;;;0.20;;
71975;SDS011;68326;52.124;5.424;2023-03-15T01:56:13;3.10;;;0.43;;
71975;SDS011;68326;52.124;5.424;2023-03-15T01:58:40;1.70;;;0.30;;
71975;SDS011;68326;52.124;5.424;2023-03-15T02:01:09;1.08;;;0.28;;
71975;SDS011;68326;52.124;5.424;2023-03-15T02:03:38;0.77;;;0.28;;
71975;SDS011;68326;52.124;5.424;2023-03-15T02:06:16;1.37;;;0.20;;
71975;SDS011;68326;52.124;5.424;2023-03-15T02:08:45;3.65;;;0.40;;
71975;SDS011;68326;52.124;5.424;2023-03-15T02:11:18;0.43;;;0.15;;
71975;SDS011;68326;52.124;5.424;2023-03-15T02:13:47;3.35;;;0.20;;
71975;SDS011;68326;52.124;5.424;2023-03-15T02:16:15;1.60;;;0.40;;
71975;SDS011;68326;52.124;5.424;2023-03-15T02:18:43;0.70;;;0.20;;
71975;SDS011;68326;52.124;5.424;2023-03-15T02:21:13;1.30;;;0.30;;
71975;SDS011;68326;52.124;5.424;2023-03-15T02:23:43;2.67;;;0.20;;
71975;SDS011;68326;52.124;5.424;2023-03-15T02:26:18;2.17;;;0.25;;
71975;SDS011;68326;52.124;5.424;2023-03-15T02:28:50;0.90;;;0.10;;
71975;SDS011;68326;52.124;5.424;2023-03-15T02:31:19;1.00;;;0.20;;
71975;SDS011;68326;52.124;5.424;2023-03-15T02:33:50;1.98;;;0.20;;
71975;SDS011;68326;52.124;5.424;2023-03-15T02:36:22;1.42;;;0.20;;
71975;SDS011;68326;52.124;5.424;2023-03-15T02:38:51;1.63;;;0.20;;
71975;SDS011;68326;52.124;5.424;2023-03-15T02:41:34;1.15;;;0.30;;
71975;SDS011;68326;52.124;5.424;2023-03-15T02:44:05;1.20;;;0.10;;
71975;SDS011;68326;52.124;5.424;2023-03-15T02:46:41;0.70;;;0.20;;
71975;SDS011;68326;52.124;5.424;2023-03-15T02:49:11;0.73;;;0.20;;
71975;SDS011;68326;52.124;5.424;2023-03-15T02:51:38;2.70;;;0.32;;
71975;SDS011;68326;52.124;5.424;2023-03-15T02:54:05;4.60;;;0.70;;
71975;SDS011;68326;52.124;5.424;2023-03-15T02:56:31;1.73;;;0.60;;
71975;SDS011;68326;52.124;5.424;2023-03-15T02:58:58;1.02;;;0.15;;
71975;SDS011;68326;52.124;5.424;2023-03-15T03:01:25;0.98;;;0.20;;
71975;SDS011;68326;52.124;5.424;2023-03-15T03:03:52;2.00;;;0.20;;
71975;SDS011;68326;52.124;5.424;2023-03-15T03:06:18;0.80;;;0.20;;
71975;SDS011;68326;52.124;5.424;2023-03-15T03:08:45;3.00;;;0.30;;
71975;SDS011;68326;52.124;5.424;2023-03-15T03:11:13;1.08;;;0.20;;
71975;SDS011;68326;52.124;5.424;2023-03-15T03:13:40;2.45;;;0.28;;
71975;SDS011;68326;52.124;5.424;2023-03-15T03:16:07;2.40;;;0.30;;
71975;SDS011;68326;52.124;5.424;2023-03-15T03:18:34;1.30;;;0.20;;
71975;SDS011;68326;52.124;5.424;2023-03-15T03:21:05;2.20;;;0.50;;
71975;SDS011;68326;52.124;5.424;2023-03-15T03:23:33;1.15;;;0.30;;
71975;SDS011;68326;52.124;5.424;2023-03-15T03:26:01;1.17;;;0.22;;
71975;SDS011;68326;52.124;5.424;2023-03-15T03:28:29;1.98;;;0.22;;
71975;SDS011;68326;52.124;5.424;2023-03-15T03:30:58;2.30;;;0.43;;
71975;SDS011;68326;52.124;5.424;2023-03-15T03:33:24;1.43;;;0.40;;
71975;SDS011;68326;52.124;5.424;2023-03-15T03:35:51;1.35;;;0.28;;
71975;SDS011;68326;52.124;5.424;2023-03-15T03:38:19;1.92;;;0.30;;
71975;SDS011;68326;52.124;5.424;2023-03-15T03:40:45;2.33;;;0.30;;
71975;SDS011;68326;52.124;5.424;2023-03-15T03:43:12;2.78;;;0.30;;
71975;SDS011;68326;52.124;5.424;2023-03-15T03:45:38;1.00;;;0.20;;
71975;SDS011;68326;52.124;5.424;2023-03-15T03:48:05;2.08;;;0.30;;
71975;SDS011;68326;52.124;5.424;2023-03-15T03:50:31;1.30;;;0.20;;
71975;SDS011;68326;52.124;5.424;2023-03-15T03:52:58;2.17;;;0.30;;
71975;SDS011;68326;52.124;5.424;2023-03-15T03:55:24;1.25;;;0.30;;
71975;SDS011;68326;52.124;5.424;2023-03-15T03:57:50;1.30;;;0.20;;
71975;SDS011;68326;52.124;5.424;2023-03-15T04:00:18;0.75;;;0.20;;
71975;SDS011;68326;52.124;5.424;2023-03-15T04:02:45;2.58;;;0.20;;
71975;SDS011;68326;52.124;5.424;2023-03-15T04:05:12;1.38;;;0.30;;
71975;SDS011;68326;52.124;5.424;2023-03-15T04:07:39;1.50;;;0.22;;
71975;SDS011;68326;52.124;5.424;2023-03-15T04:10:06;1.17;;;0.30;;
71975;SDS011;68326;52.124;5.424;2023-03-15T04:12:33;2.55;;;0.43;;
71975;SDS011;68326;52.124;5.424;2023-03-15T04:15:00;2.63;;;0.30;;
71975;SDS011;68326;52.124;5.424;2023-03-15T04:17:26;1.42;;;0.40;;
71975;SDS011;68326;52.124;5.424;2023-03-15T04:19:53;2.00;;;0.35;;
71975;SDS011;68326;52.124;5.424;2023-03-15T04:22:19;1.77;;;0.20;;
71975;SDS011;68326;52.124;5.424;2023-03-15T04:24:45;2.42;;;0.50;;
71975;SDS011;68326;52.124;5.424;2023-03-15T04:27:15;2.50;;;0.40;;
71975;SDS011;68326;52.124;5.424;2023-03-15T04:29:42;1.50;;;0.30;;
71975;SDS011;68326;52.124;5.424;2023-03-15T04:32:09;3.72;;;0.43;;
71975;SDS011;68326;52.124;5.424;2023-03-15T04:34:35;2.53;;;0.30;;
71975;SDS011;68326;52.124;5.424;2023-03-15T04:37:05;2.63;;;0.35;;
71975;SDS011;68326;52.124;5.424;2023-03-15T04:39:31;2.35;;;0.25;;
71975;SDS011;68326;52.124;5.424;2023-03-15T04:41:58;2.03;;;0.30;;
71975;SDS011;68326;52.124;5.424;2023-03-15T04:44:24;3.00;;;0.50;;
71975;SDS011;68326;52.124;5.424;2023-03-15T04:46:55;3.67;;;0.40;;
71975;SDS011;68326;52.124;5.424;2023-03-15T04:49:23;2.33;;;0.40;;
71975;SDS011;68326;52.124;5.424;2023-03-15T04:51:49;2.22;;;0.50;;
71975;SDS011;68326;52.124;5.424;2023-03-15T04:54:16;1.27;;;0.30;;
71975;SDS011;68326;52.124;5.424;2023-03-15T04:56:42;4.18;;;0.47;;
71975;SDS011;68326;52.124;5.424;2023-03-15T04:59:09;6.27;;;1.43;;
71975;SDS011;68326;52.124;5.424;2023-03-15T05:01:36;6.10;;;0.57;;
71975;SDS011;68326;52.124;5.424;2023-03-15T05:04:03;2.42;;;0.40;;
71975;SDS011;68326;52.124;5.424;2023-03-15T05:06:29;2.90;;;0.38;;
71975;SDS011;68326;52.124;5.424;2023-03-15T05:08:56;4.75;;;0.60;;
71975;SDS011;68326;52.124;5.424;2023-03-15T05:11:22;1.80;;;0.40;;
71975;SDS011;68326;52.124;5.424;2023-03-15T05:13:49;4.78;;;0.60;;
71975;SDS011;68326;52.124;5.424;2023-03-15T05:16:15;2.63;;;0.52;;
71975;SDS011;68326;52.124;5.424;2023-03-15T05:18:42;3.97;;;0.40;;
71975;SDS011;68326;52.124;5.424;2023-03-15T05:21:11;1.48;;;0.43;;
71975;SDS011;68326;52.124;5.424;2023-03-15T05:23:38;2.50;;;0.50;;
71975;SDS011;68326;52.124;5.424;2023-03-15T05:26:04;2.85;;;0.47;;
71975;SDS011;68326;52.124;5.424;2023-03-15T05:28:31;6.47;;;0.70;;
71975;SDS011;68326;52.124;5.424;2023-03-15T05:30:57;4.35;;;0.93;;
71975;SDS011;68326;52.124;5.424;2023-03-15T05:33:25;4.22;;;0.85;;
71975;SDS011;68326;52.124;5.424;2023-03-15T05:35:52;5.47;;;0.60;;
71975;SDS011;68326;52.124;5.424;2023-03-15T05:38:20;3.40;;;0.70;;
71975;SDS011;68326;52.124;5.424;2023-03-15T05:40:51;2.88;;;0.65;;
71975;SDS011;68326;52.124;5.424;2023-03-15T05:43:19;3.05;;;0.50;;
71975;SDS011;68326;52.124;5.424;2023-03-15T05:45:46;3.13;;;0.70;;
71975;SDS011;68326;52.124;5.424;2023-03-15T05:48:13;6.70;;;1.07;;
71975;SDS011;68326;52.124;5.424;2023-03-15T05:50:41;3.35;;;0.70;;
71975;SDS011;68326;52.124;5.424;2023-03-15T05:53:08;2.85;;;0.60;;
71975;SDS011;68326;52.124;5.424;2023-03-15T05:55:35;2.63;;;0.70;;
71975;SDS011;68326;52.124;5.424;2023-03-15T05:58:02;6.63;;;0.95;;
71975;SDS011;68326;52.124;5.424;2023-03-15T06:00:28;1.57;;;0.50;;
71975;SDS011;68326;52.124;5.424;2023-03-15T06:02:55;5.03;;;0.77;;
71975;SDS011;68326;52.124;5.424;2023-03-15T06:05:22;1.85;;;0.50;;
71975;SDS011;68326;52.124;5.424;2023-03-15T06:07:48;5.07;;;0.73;;
71975;SDS011;68326;52.124;5.424;2023-03-15T06:10:15;3.53;;;0.80;;
71975;SDS011;68326;52.124;5.424;2023-03-15T06:12:41;3.00;;;0.43;;
71975;SDS011;68326;52.124;5.424;2023-03-15T06:15:09;6.80;;;0.80;;
71975;SDS011;68326;52.124;5.424;2023-03-15T06:17:37;7.05;;;0.73;;
71975;SDS011;68326;52.124;5.424;2023-03-15T06:20:03;3.05;;;0.70;;
71975;SDS011;68326;52.124;5.424;2023-03-15T06:22:30;4.13;;;0.90;;
71975;SDS011;68326;52.124;5.424;2023-03-15T06:24:56;2.97;;;0.70;;
71975;SDS011;68326;52.124;5.424;2023-03-15T06:27:23;2.20;;;0.40;;
71975;SDS011;68326;52.124;5.424;2023-03-15T06:29:49;3.20;;;0.70;;
71975;SDS011;68326;52.124;5.424;2023-03-15T06:32:16;5.72;;;0.65;;
71975;SDS011;68326;52.124;5.424;2023-03-15T06:34:42;3.25;;;0.65;;
71975;SDS011;68326;52.124;5.424;2023-03-15T06:37:09;2.40;;;0.57;;
71975;SDS011;68326;52.124;5.424;2023-03-15T06:39:43;4.50;;;0.55;;
71975;SDS011;68326;52.124;5.424;2023-03-15T06:42:10;3.88;;;0.70;;
71975;SDS011;68326;52.124;5.424;2023-03-15T06:44:39;4.40;;;0.43;;
71975;SDS011;68326;52.124;5.424;2023-03-15T06:47:07;4.30;;;0.30;;
71975;SDS011;68326;52.124;5.424;2023-03-15T06:49:34;4.97;;;1.03;;
71975;SDS011;68326;52.124;5.424;2023-03-15T06:52:00;4.00;;;0.45;;
71975;SDS011;68326;52.124;5.424;2023-03-15T06:54:27;5.22;;;0.63;;
71975;SDS011;68326;52.124;5.424;2023-03-15T06:56:54;2.42;;;0.70;;
71975;SDS011;68326;52.124;5.424;2023-03-15T06:59:21;3.05;;;0.55;;
71975;SDS011;68326;52.124;5.424;2023-03-15T07:01:48;3.83;;;0.50;;
71975;SDS011;68326;52.124;5.424;2023-03-15T07:04:14;3.45;;;0.70;;
71975;SDS011;68326;52.124;5.424;2023-03-15T07:06:41;2.42;;;0.80;;
71975;SDS011;68326;52.124;5.424;2023-03-15T07:09:07;5.40;;;1.25;;
71975;SDS011;68326;52.124;5.424;2023-03-15T07:11:34;4.13;;;0.77;;
71975;SDS011;68326;52.124;5.424;2023-03-15T07:14:00;3.20;;;0.80;;
71975;SDS011;68326;52.124;5.424;2023-03-15T07:16:27;3.17;;;0.82;;
71975;SDS011;68326;52.124;5.424;2023-03-15T07:18:53;8.13;;;1.10;;
71975;SDS011;68326;52.124;5.424;2023-03-15T07:21:21;5.10;;;1.10;;
71975;SDS011;68326;52.124;5.424;2023-03-15T07:23:48;4.68;;;0.68;;
71975;SDS011;68326;52.124;5.424;2023-03-15T07:26:14;4.77;;;0.60;;
71975;SDS011;68326;52.124;5.424;2023-03-15T07:28:41;3.47;;;0.65;;
71975;SDS011;68326;52.124;5.424;2023-03-15T07:31:10;2.80;;;0.50;;
71975;SDS011;68326;52.124;5.424;2023-03-15T07:33:37;2.83;;;0.50;;
71975;SDS011;68326;52.124;5.424;2023-03-15T07:36:04;6.70;;;1.00;;
71975;SDS011;68326;52.124;5.424;2023-03-15T07:38:32;5.10;;;0.63;;
71975;SDS011;68326;52.124;5.424;2023-03-15T07:41:03;4.28;;;0.80;;
71975;SDS011;68326;52.124;5.424;2023-03-15T07:43:31;3.05;;;0.77;;
71975;SDS011;68326;52.124;5.424;2023-03-15T07:45:58;4.28;;;0.65;;
71975;SDS011;68326;52.124;5.424;2023-03-15T07:48:25;4.35;;;0.57;;
71975;SDS011;68326;52.124;5.424;2023-03-15T07:50:51;6.17;;;0.47;;
71975;SDS011;68326;52.124;5.424;2023-03-15T07:53:17;3.40;;;0.40;;
71975;SDS011;68326;52.124;5.424;2023-03-15T07:55:45;3.60;;;0.43;;
71975;SDS011;68326;52.124;5.424;2023-03-15T07:58:13;3.30;;;0.40;;
71975;SDS011;68326;52.124;5.424;2023-03-15T08:00:39;5.05;;;0.43;;
71975;SDS011;68326;52.124;5.424;2023-03-15T08:03:06;1.70;;;0.40;;
71975;SDS011;68326;52.124;5.424;2023-03-15T08:05:33;5.15;;;0.60;;
71975;SDS011;68326;52.124;5.424;2023-03-15T08:08:00;5.35;;;0.57;;
71975;SDS011;68326;52.124;5.424;2023-03-15T08:10:27;3.63;;;0.38;;
71975;SDS011;68326;52.124;5.424;2023-03-15T08:12:54;4.13;;;0.40;;
71975;SDS011;68326;52.124;5.424;2023-03-15T08:15:20;3.17;;;0.33;;
71975;SDS011;68326;52.124;5.424;2023-03-15T08:17:47;3.15;;;0.28;;
71975;SDS011;68326;52.124;5.424;2023-03-15T08:20:14;1.55;;;0.30;;
71975;SDS011;68326;52.124;5.424;2023-03-15T08:22:46;3.72;;;0.30;;
71975;SDS011;68326;52.124;5.424;2023-03-15T08:25:15;3.03;;;0.40;;
71975;SDS011;68326;52.124;5.424;2023-03-15T08:27:42;4.03;;;0.50;;
71975;SDS011;68326;52.124;5.424;2023-03-15T08:30:11;1.60;;;0.20;;
71975;SDS011;68326;52.124;5.424;2023-03-15T08:32:40;2.95;;;0.22;;
71975;SDS011;68326;52.124;5.424;2023-03-15T08:35:08;2.35;;;0.25;;
71975;SDS011;68326;52.124;5.424;2023-03-15T08:37:41;2.92;;;0.47;;
71975;SDS011;68326;52.124;5.424;2023-03-15T08:40:07;2.80;;;0.20;;
71975;SDS011;68326;52.124;5.424;2023-03-15T08:42:36;2.30;;;0.30;;
71975;SDS011;68326;52.124;5.424;2023-03-15T08:45:04;4.10;;;0.22;;
71975;SDS011;68326;52.124;5.424;2023-03-15T08:47:32;2.88;;;0.50;;
71975;SDS011;68326;52.124;5.424;2023-03-15T08:50:21;2.83;;;0.20;;
71975;SDS011;68326;52.124;5.424;2023-03-15T08:52:47;1.93;;;0.30;;
71975;SDS011;68326;52.124;5.424;2023-03-15T08:55:14;3.17;;;0.30;;
71975;SDS011;68326;52.124;5.424;2023-03-15T08:57:40;1.65;;;0.22;;
71975;SDS011;68326;52.124;5.424;2023-03-15T09:00:08;2.50;;;0.20;;
71975;SDS011;68326;52.124;5.424;2023-03-15T09:02:36;3.13;;;0.20;;
71975;SDS011;68326;52.124;5.424;2023-03-15T09:05:03;2.60;;;0.20;;
71975;SDS011;68326;52.124;5.424;2023-03-15T09:07:32;4.30;;;0.20;;
71975;SDS011;68326;52.124;5.424;2023-03-15T09:09:59;4.10;;;0.40;;
71975;SDS011;68326;52.124;5.424;2023-03-15T09:12:25;5.70;;;0.38;;
71975;SDS011;68326;52.124;5.424;2023-03-15T09:14:53;2.40;;;0.35;;
71975;SDS011;68326;52.124;5.424;2023-03-15T09:17:19;5.00;;;0.30;;
71975;SDS011;68326;52.124;5.424;2023-03-15T09:19:46;4.13;;;0.60;;
71975;SDS011;68326;52.124;5.424;2023-03-15T09:22:12;1.92;;;0.20;;
71975;SDS011;68326;52.124;5.424;2023-03-15T09:24:48;4.63;;;0.63;;
71975;SDS011;68326;52.124;5.424;2023-03-15T09:27:17;2.20;;;0.30;;
71975;SDS011;68326;52.124;5.424;2023-03-15T09:29:43;3.90;;;0.10;;
71975;SDS011;68326;52.124;5.424;2023-03-15T09:32:10;2.35;;;0.08;;
71975;SDS011;68326;52.124;5.424;2023-03-15T09:34:37;1.92;;;0.45;;
71975;SDS011;68326;52.124;5.424;2023-03-15T09:37:07;1.77;;;0.20;;
71975;SDS011;68326;52.124;5.424;2023-03-15T09:39:33;4.28;;;0.30;;
71975;SDS011;68326;52.124;5.424;2023-03-15T09:42:00;3.07;;;0.57;;
71975;SDS011;68326;52.124;5.424;2023-03-15T09:44:33;3.58;;;0.40;;
71975;SDS011;68326;52.124;5.424;2023-03-15T09:49:50;2.97;;;0.20;;
71975;SDS011;68326;52.124;5.424;2023-03-15T09:55:30;3.07;;;0.30;;
71975;SDS011;68326;52.124;5.424;2023-03-15T09:57:57;0.88;;;0.03;;
71975;SDS011;68326;52.124;5.424;2023-03-15T10:00:40;3.20;;;0.20;;
71975;SDS011;68326;52.124;5.424;2023-03-15T10:03:15;2.35;;;0.20;;
71975;SDS011;68326;52.124;5.424;2023-03-15T10:05:48;3.42;;;0.20;;
71975;SDS011;68326;52.124;5.424;2023-03-15T10:08:19;3.63;;;0.50;;
71975;SDS011;68326;52.124;5.424;2023-03-15T10:10:49;5.90;;;0.30;;
71975;SDS011;68326;52.124;5.424;2023-03-15T10:13:31;5.35;;;0.20;;
71975;SDS011;68326;52.124;5.424;2023-03-15T10:21:57;4.53;;;0.50;;
71975;SDS011;68326;52.124;5.424;2023-03-15T10:24:31;1.90;;;0.13;;
71975;SDS011;68326;52.124;5.424;2023-03-15T10:27:21;2.78;;;0.20;;
71975;SDS011;68326;52.124;5.424;2023-03-15T10:29:57;4.28;;;0.40;;
71975;SDS011;68326;52.124;5.424;2023-03-15T10:32:25;2.55;;;0.28;;
71975;SDS011;68326;52.124;5.424;2023-03-15T10:34:56;3.10;;;0.20;;
71975;SDS011;68326;52.124;5.424;2023-03-15T10:37:24;2.33;;;0.28;;
71975;SDS011;68326;52.124;5.424;2023-03-15T10:39:55;2.47;;;0.20;;
71975;SDS011;68326;52.124;5.424;2023-03-15T10:42:24;3.67;;;0.38;;
71975;SDS011;68326;52.124;5.424;2023-03-15T10:44:54;3.13;;;0.50;;
71975;SDS011;68326;52.124;5.424;2023-03-15T10:47:21;4.47;;;0.20;;
71975;SDS011;68326;52.124;5.424;2023-03-15T10:49:54;1.95;;;0.32;;
71975;SDS011;68326;52.124;5.424;2023-03-15T10:55:04;3.83;;;0.20;;
71975;SDS011;68326;52.124;5.424;2023-03-15T10:57:39;2.75;;;0.20;;
71975;SDS011;68326;52.124;5.424;2023-03-15T11:00:19;6.23;;;0.20;;
71975;SDS011;68326;52.124;5.424;2023-03-15T11:02:51;2.92;;;0.20;;
71975;SDS011;68326;52.124;5.424;2023-03-15T11:05:31;2.30;;;0.30;;
71975;SDS011;68326;52.124;5.424;2023-03-15T11:08:05;2.75;;;0.30;;
71975;SDS011;68326;52.124;5.424;2023-03-15T11:10:38;3.25;;;0.32;;
71975;SDS011;68326;52.124;5.424;2023-03-15T11:13:11;3.43;;;0.20;;
71975;SDS011;68326;52.124;5.424;2023-03-15T11:15:39;2.38;;;0.30;;
71975;SDS011;68326;52.124;5.424;2023-03-15T11:18:18;4.50;;;0.45;;
71975;SDS011;68326;52.124;5.424;2023-03-15T11:20:51;2.40;;;0.20;;
71975;SDS011;68326;52.124;5.424;2023-03-15T11:23:25;2.38;;;0.15;;
71975;SDS011;68326;52.124;5.424;2023-03-15T11:25:54;2.43;;;0.30;;
71975;SDS011;68326;52.124;5.424;2023-03-15T11:28:28;1.20;;;0.10;;
71975;SDS011;68326;52.124;5.424;2023-03-15T11:30:57;2.55;;;0.30;;
71975;SDS011;68326;52.124;5.424;2023-03-15T11:36:17;3.08;;;0.40;;
71975;SDS011;68326;52.124;5.424;2023-03-15T11:38:47;2.53;;;0.23;;
71975;SDS011;68326;52.124;5.424;2023-03-15T11:44:00;0.98;;;0.20;;
71975;SDS011;68326;52.124;5.424;2023-03-15T11:46:42;2.72;;;0.30;;
71975;SDS011;68326;52.124;5.424;2023-03-15T11:49:16;2.78;;;0.20;;
71975;SDS011;68326;52.124;5.424;2023-03-15T11:51:54;2.57;;;0.30;;
71975;SDS011;68326;52.124;5.424;2023-03-15T11:54:22;2.17;;;0.25;;
71975;SDS011;68326;52.124;5.424;2023-03-15T11:59:24;2.03;;;0.20;;
71975;SDS011;68326;52.124;5.424;2023-03-15T12:04:57;3.67;;;0.23;;
71975;SDS011;68326;52.124;5.424;2023-03-15T12:07:30;2.65;;;0.20;;
71975;SDS011;68326;52.124;5.424;2023-03-15T12:17:43;1.73;;;0.20;;
71975;SDS011;68326;52.124;5.424;2023-03-15T12:20:37;6.47;;;0.30;;
71975;SDS011;68326;52.124;5.424;2023-03-15T12:25:47;2.50;;;0.30;;
71975;SDS011;68326;52.124;5.424;2023-03-15T12:28:25;2.63;;;0.20;;
71975;SDS011;68326;52.124;5.424;2023-03-15T12:30:55;0.93;;;0.20;;
71975;SDS011;68326;52.124;5.424;2023-03-15T12:33:24;3.22;;;0.20;;
71975;SDS011;68326;52.124;5.424;2023-03-15T12:36:00;4.32;;;0.40;;
71975;SDS011;68326;52.124;5.424;2023-03-15T12:38:37;1.75;;;0.10;;
71975;SDS011;68326;52.124;5.424;2023-03-15T12:41:08;1.98;;;0.30;;
71975;SDS011;68326;52.124;5.424;2023-03-15T12:44:16;3.27;;;0.10;;
71975;SDS011;68326;52.124;5.424;2023-03-15T12:47:18;0.85;;;0.10;;
71975;SDS011;68326;52.124;5.424;2023-03-15T12:49:44;2.67;;;0.20;;
71975;SDS011;68326;52.124;5.424;2023-03-15T12:57:23;0.97;;;0.17;;
71975;SDS011;68326;52.124;5.424;2023-03-15T12:59:59;2.15;;;0.20;;
71975;SDS011;68326;52.124;5.424;2023-03-15T13:02:38;2.10;;;0.10;;
71975;SDS011;68326;52.124;5.424;2023-03-15T13:07:59;4.80;;;0.30;;
71975;SDS011;68326;52.124;5.424;2023-03-15T13:10:57;3.60;;;0.20;;
71975;SDS011;68326;52.124;5.424;2023-03-15T13:22:03;3.15;;;0.30;;
71975;SDS011;68326;52.124;5.424;2023-03-15T13:27:12;3.80;;;0.38;;
71975;SDS011;68326;52.124;5.424;2023-03-15T13:29:48;1.70;;;0.20;;
71975;SDS011;68326;52.124;5.424;2023-03-15T13:32:16;2.97;;;0.20;;
71975;SDS011;68326;52.124;5.424;2023-03-15T13:34:45;3.30;;;0.30;;
71975;SDS011;68326;52.124;5.424;2023-03-15T13:37:16;3.17;;;0.20;;
71975;SDS011;68326;52.124;5.424;2023-03-15T13:39:51;3.70;;;0.20;;
71975;SDS011;68326;52.124;5.424;2023-03-15T13:42:21;3.13;;;0.20;;
71975;SDS011;68326;52.124;5.424;2023-03-15T13:47:30;2.90;;;0.20;;
71975;SDS011;68326;52.124;5.424;2023-03-15T13:50:01;3.30;;;0.50;;
71975;SDS011;68326;52.124;5.424;2023-03-15T13:52:29;1.63;;;0.20;;
71975;SDS011;68326;52.124;5.424;2023-03-15T13:54:56;2.65;;;0.20;;
71975;SDS011;68326;52.124;5.424;2023-03-15T13:57:23;1.67;;;0.20;;
71975;SDS011;68326;52.124;5.424;2023-03-15T13:59:56;2.72;;;0.30;;
71975;SDS011;68326;52.124;5.424;2023-03-15T14:02:37;2.97;;;0.20;;
71975;SDS011;68326;52.124;5.424;2023-03-15T14:05:13;3.85;;;0.20;;
71975;SDS011;68326;52.124;5.424;2023-03-15T14:07:42;2.33;;;0.20;;
71975;SDS011;68326;52.124;5.424;2023-03-15T14:15:49;2.07;;;0.67;;
71975;SDS011;68326;52.124;5.424;2023-03-15T14:18:20;2.20;;;0.30;;
71975;SDS011;68326;52.124;5.424;2023-03-15T14:21:02;1.35;;;0.10;;
71975;SDS011;68326;52.124;5.424;2023-03-15T14:23:35;3.30;;;0.30;;
71975;SDS011;68326;52.124;5.424;2023-03-15T14:28:39;3.23;;;0.20;;
71975;SDS011;68326;52.124;5.424;2023-03-15T14:31:06;1.00;;;0.20;;
71975;SDS011;68326;52.124;5.424;2023-03-15T14:33:40;1.85;;;0.20;;
71975;SDS011;68326;52.124;5.424;2023-03-15T14:36:29;1.00;;;0.10;;
71975;SDS011;68326;52.124;5.424;2023-03-15T14:39:00;0.82;;;0.10;;
71975;SDS011;68326;52.124;5.424;2023-03-15T14:43:53;1.67;;;0.10;;
71975;SDS011;68326;52.124;5.424;2023-03-15T14:46:19;1.83;;;0.20;;
71975;SDS011;68326;52.124;5.424;2023-03-15T14:48:46;1.85;;;0.20;;
71975;SDS011;68326;52.124;5.424;2023-03-15T14:51:16;3.17;;;0.30;;
71975;SDS011;68326;52.124;5.424;2023-03-15T14:53:45;1.20;;;0.20;;
71975;SDS011;68326;52.124;5.424;2023-03-15T14:56:14;4.70;;;0.30;;
71975;SDS011;68326;52.124;5.424;2023-03-15T14:58:41;2.15;;;0.20;;
71975;SDS011;68326;52.124;5.424;2023-03-15T15:01:12;2.15;;;0.20;;
71975;SDS011;68326;52.124;5.424;2023-03-15T15:03:47;0.70;;;0.13;;
71975;SDS011;68326;52.124;5.424;2023-03-15T15:06:18;1.33;;;0.20;;
71975;SDS011;68326;52.124;5.424;2023-03-15T15:08:45;3.70;;;0.20;;
71975;SDS011;68326;52.124;5.424;2023-03-15T15:11:13;2.35;;;0.30;;
71975;SDS011;68326;52.124;5.424;2023-03-15T15:13:40;2.28;;;0.20;;
71975;SDS011;68326;52.124;5.424;2023-03-15T15:16:07;2.13;;;0.10;;
71975;SDS011;68326;52.124;5.424;2023-03-15T15:18:34;3.57;;;0.47;;
71975;SDS011;68326;52.124;5.424;2023-03-15T15:21:05;3.25;;;0.52;;
71975;SDS011;68326;52.124;5.424;2023-03-15T15:23:52;0.98;;;0.17;;
71975;SDS011;68326;52.124;5.424;2023-03-15T15:26:25;1.70;;;0.20;;
71975;SDS011;68326;52.124;5.424;2023-03-15T15:28:53;1.98;;;0.30;;
71975;SDS011;68326;52.124;5.424;2023-03-15T15:31:20;2.37;;;0.20;;
71975;SDS011;68326;52.124;5.424;2023-03-15T15:33:48;5.50;;;0.38;;
71975;SDS011;68326;52.124;5.424;2023-03-15T15:36:26;2.83;;;0.40;;
71975;SDS011;68326;52.124;5.424;2023-03-15T15:38:57;1.05;;;0.10;;
71975;SDS011;68326;52.124;5.424;2023-03-15T15:41:31;2.90;;;0.20;;
71975;SDS011;68326;52.124;5.424;2023-03-15T15:43:58;2.83;;;0.13;;
71975;SDS011;68326;52.124;5.424;2023-03-15T15:46:24;0.50;;;0.10;;
71975;SDS011;68326;52.124;5.424;2023-03-15T15:48:51;1.60;;;0.20;;
71975;SDS011;68326;52.124;5.424;2023-03-15T15:53:46;2.47;;;0.10;;
71975;SDS011;68326;52.124;5.424;2023-03-15T15:56:13;1.17;;;0.20;;
71975;SDS011;68326;52.124;5.424;2023-03-15T15:58:40;2.65;;;0.20;;
71975;SDS011;68326;52.124;5.424;2023-03-15T16:01:11;2.70;;;0.20;;
71975;SDS011;68326;52.124;5.424;2023-03-15T16:03:38;3.05;;;0.20;;
71975;SDS011;68326;52.124;5.424;2023-03-15T16:06:05;2.65;;;0.10;;
71975;SDS011;68326;52.124;5.424;2023-03-15T16:08:38;3.27;;;0.40;;
71975;SDS011;68326;52.124;5.424;2023-03-15T16:11:06;1.02;;;0.30;;
71975;SDS011;68326;52.124;5.424;2023-03-15T16:13:33;1.02;;;0.15;;
71975;SDS011;68326;52.124;5.424;2023-03-15T16:15:59;2.35;;;0.25;;